Time;durP1;ratioP1;P1;durP2;ratioP2;P2;SDS_P1;SDS_P2;PMS_P1;PMS_P2;Temp;Humidity;BMP_temperature;BMP_pressure;BME280_temperature;BME280_humidity;BME280_pressure;Samples;Min_cycle;Max_cycle;Signal;HPM_P1;HPM_P2
2020/12/11 00:00:00;;;;;;;8.25;7.45;;;-4.00;71.40;;;;;;5105300;29;20043;-79
2020/12/11 00:02:36;;;;;;;8.18;7.47;;;-4.00;71.70;;;;;;5105063;29;20056;-79
2020/12/11 00:05:07;;;;;;;8.93;8.13;;;-4.00;71.70;;;;;;5102400;29;20102;-80
2020/12/11 00:07:40;;;;;;;10.30;9.38;;;-4.10;71.60;;;;;;5099188;29;20032;-80
2020/12/11 00:10:13;;;;;;;9.30;8.43;;;-4.10;72.20;;;;;;5115041;28;20048;-80
2020/12/11 00:12:50;;;;;;;12.50;11.30;;;-4.30;72.20;;;;;;5103090;29;20503;-81
2020/12/11 00:15:22;;;;;;;12.10;10.77;;;-4.30;73.80;;;;;;5103378;29;20044;-81
2020/12/11 00:17:53;;;;;;;13.18;10.68;;;-4.30;73.10;;;;;;5105477;29;20793;-81
2020/12/11 00:20:25;;;;;;;11.57;10.45;;;-4.30;73.10;;;;;;5110373;29;20130;-80
2020/12/11 00:22:56;;;;;;;13.70;11.15;;;-4.30;72.70;;;;;;5109081;29;20056;-80
2020/12/11 00:25:30;;;;;;;10.95;9.18;;;-4.30;72.50;;;;;;5102718;29;20095;-81
2020/12/11 00:28:02;;;;;;;10.30;9.30;;;-4.30;71.20;;;;;;5098383;29;20050;-80
2020/12/11 00:30:33;;;;;;;10.48;9.48;;;-4.30;71.80;;;;;;5094809;29;20115;-81
2020/12/11 00:33:05;;;;;;;10.63;9.38;;;-4.30;71.80;;;;;;5087729;29;20048;-82
2020/12/11 00:35:36;;;;;;;9.95;8.95;;;-4.30;71.40;;;;;;5103595;29;20044;-80
2020/12/11 00:38:08;;;;;;;11.18;10.13;;;-4.30;71.50;;;;;;5104607;29;20044;-80
2020/12/11 00:40:39;;;;;;;10.57;9.48;;;-4.30;71.40;;;;;;5100429;29;20044;-81
2020/12/11 00:43:13;;;;;;;9.98;8.98;;;-4.30;71.10;;;;;;5099477;29;20032;-80
2020/12/11 00:45:45;;;;;;;9.32;8.43;;;-4.30;71.20;;;;;;5104594;29;20051;-82
2020/12/11 00:48:16;;;;;;;8.98;8.18;;;-4.30;71.00;;;;;;5118184;29;20042;-81
2020/12/11 00:50:48;;;;;;;8.43;7.72;;;-4.50;70.50;;;;;;5128899;29;20047;-80
2020/12/11 00:53:19;;;;;;;8.73;8.02;;;-4.50;71.40;;;;;;5117150;29;20064;-80
2020/12/11 00:55:52;;;;;;;9.43;8.52;;;-4.60;71.60;;;;;;5112087;29;20083;-80
2020/12/11 00:58:23;;;;;;;9.05;8.25;;;-4.60;72.00;;;;;;5113054;29;20052;-81
2020/12/11 01:00:55;;;;;;;9.20;8.40;;;-4.60;71.60;;;;;;5111553;29;20043;-80
2020/12/11 01:03:26;;;;;;;9.93;8.93;;;-4.50;71.40;;;;;;5122618;28;20048;-81
2020/12/11 01:05:58;;;;;;;9.73;8.82;;;-4.50;71.60;;;;;;5118056;28;20048;-81
2020/12/11 01:08:29;;;;;;;9.05;8.15;;;-4.50;71.10;;;;;;5107594;29;20044;-81
2020/12/11 01:11:01;;;;;;;8.93;8.13;;;-4.50;70.30;;;;;;5112216;29;20036;-81
2020/12/11 01:13:32;;;;;;;8.55;7.75;;;-4.40;69.70;;;;;;5123875;28;20072;-81
2020/12/11 01:16:06;;;;;;;9.23;8.05;;;-4.50;69.40;;;;;;5118318;29;20043;-81
2020/12/11 01:18:37;;;;;;;10.07;8.10;;;-4.50;68.40;;;;;;5116137;29;20108;-81
2020/12/11 01:21:09;;;;;;;9.30;8.50;;;-4.70;70.10;;;;;;5112799;29;20074;-82
2020/12/11 01:23:40;;;;;;;9.30;8.40;;;-4.80;70.80;;;;;;5114628;29;20032;-81
2020/12/11 01:26:12;;;;;;;8.95;8.15;;;-4.90;72.10;;;;;;5109547;29;20039;-81
2020/12/11 01:28:43;;;;;;;9.02;8.13;;;-4.90;71.80;;;;;;5104259;29;20494;-80
2020/12/11 01:31:18;;;;;;;8.85;7.88;;;-4.90;71.50;;;;;;5103059;29;20043;-80
2020/12/11 01:33:50;;;;;;;7.93;7.22;;;-4.80;71.50;;;;;;5101142;29;20066;-81
2020/12/11 01:36:26;;;;;;;10.45;9.38;;;-4.80;72.10;;;;;;5103435;29;20043;-81
2020/12/11 01:38:57;;;;;;;10.98;9.80;;;-4.80;71.40;;;;;;5107958;29;20075;-81
2020/12/11 01:41:31;;;;;;;11.82;10.18;;;-4.80;71.20;;;;;;5110052;29;20495;-81
2020/12/11 01:44:13;;;;;;;10.55;9.45;;;-4.90;71.70;;;;;;5111853;29;20561;-81
2020/12/11 01:46:47;;;;;;;10.82;9.73;;;-5.00;70.70;;;;;;5107280;29;20044;-81
2020/12/11 01:49:19;;;;;;;11.45;9.80;;;-5.10;70.90;;;;;;5109712;29;20044;-81
2020/12/11 01:51:51;;;;;;;12.23;9.48;;;-5.20;71.30;;;;;;5105279;28;20044;-81
2020/12/11 01:54:22;;;;;;;10.57;9.57;;;-5.20;71.30;;;;;;5097201;29;20040;-81
2020/12/11 01:57:05;;;;;;;10.60;9.50;;;-5.20;71.00;;;;;;5112877;29;20043;-81
2020/12/11 01:59:42;;;;;;;12.70;9.70;;;-5.20;71.00;;;;;;5108563;29;20056;-82
2020/12/11 02:02:14;;;;;;;9.52;8.55;;;-5.10;71.30;;;;;;5124269;29;20078;-81
2020/12/11 02:04:47;;;;;;;9.18;8.27;;;-5.10;72.20;;;;;;5113898;29;20053;-81
2020/12/11 02:07:18;;;;;;;7.88;7.18;;;-5.10;72.60;;;;;;5119795;29;20080;-81
2020/12/11 02:09:50;;;;;;;8.32;7.38;;;-5.10;73.60;;;;;;5129780;29;20079;-81
2020/12/11 02:12:22;;;;;;;7.97;7.20;;;-5.20;73.60;;;;;;5126874;29;20042;-81
2020/12/11 02:14:54;;;;;;;8.90;8.10;;;-5.10;73.40;;;;;;5139898;28;20093;-81
2020/12/11 02:17:28;;;;;;;10.68;9.57;;;-5.10;73.80;;;;;;5118616;29;20044;-82
2020/12/11 02:20:00;;;;;;;9.68;8.70;;;-5.20;72.80;;;;;;5125290;28;20494;-82
2020/12/11 02:22:31;;;;;;;9.93;8.93;;;-5.30;72.80;;;;;;5112125;29;20047;-82
2020/12/11 02:25:03;;;;;;;7.65;6.95;;;-5.20;72.50;;;;;;5114765;29;20106;-82
2020/12/11 02:27:37;;;;;;;8.60;7.80;;;-5.20;72.70;;;;;;5111645;29;20052;-82
2020/12/11 02:30:09;;;;;;;11.75;9.30;;;-5.10;73.50;;;;;;5114621;29;20032;-82
2020/12/11 02:32:41;;;;;;;11.48;9.38;;;-5.20;71.90;;;;;;5113730;29;20052;-83
2020/12/11 02:35:13;;;;;;;11.85;9.70;;;-5.20;71.70;;;;;;5114863;29;20058;-82
2020/12/11 02:40:53;;;;;;;10.40;9.18;;;-5.30;70.60;;;;;;5116147;29;20071;-82
2020/12/11 02:43:25;;;;;;;10.13;9.02;;;-5.60;71.60;;;;;;5095403;29;20408;-81
2020/12/11 02:45:57;;;;;;;11.85;9.32;;;-5.70;72.00;;;;;;5095134;29;20036;-82
2020/12/11 02:48:28;;;;;;;9.98;8.73;;;-5.90;71.60;;;;;;5110588;28;20051;-80
2020/12/11 02:51:00;;;;;;;11.13;9.10;;;-6.20;72.60;;;;;;5095201;29;20075;-81
2020/12/11 02:53:31;;;;;;;11.90;9.07;;;-6.30;73.00;;;;;;5094038;29;20040;-81
2020/12/11 02:56:03;;;;;;;9.82;8.82;;;-6.20;73.10;;;;;;5091061;29;20540;-81
2020/12/11 02:58:34;;;;;;;9.60;8.60;;;-6.10;73.10;;;;;;5093237;29;20059;-81
2020/12/11 03:01:06;;;;;;;6.80;6.20;;;-6.00;73.80;;;;;;5096473;29;20095;-81
2020/12/11 03:03:37;;;;;;;8.48;7.68;;;-6.00;76.60;;;;;;5091299;29;20059;-80
2020/12/11 03:06:09;;;;;;;10.77;9.43;;;-5.90;75.00;;;;;;5090724;29;20401;-81
2020/12/11 03:08:43;;;;;;;11.30;9.15;;;-5.80;73.70;;;;;;5094860;28;20040;-82
2020/12/11 03:11:15;;;;;;;10.27;9.18;;;-6.00;72.30;;;;;;5065683;29;20131;-80
2020/12/11 03:13:46;;;;;;;10.32;8.90;;;-6.00;73.00;;;;;;5083027;29;20051;-83
2020/12/11 03:16:18;;;;;;;9.68;8.35;;;-6.10;72.70;;;;;;5094759;29;20142;-83
2020/12/11 03:18:50;;;;;;;9.73;8.52;;;-6.20;72.80;;;;;;5098438;29;20051;-82
2020/12/11 03:21:21;;;;;;;11.45;8.80;;;-6.10;72.90;;;;;;5095206;29;20044;-83
2020/12/11 03:23:53;;;;;;;9.90;8.82;;;-6.20;71.50;;;;;;5084059;29;20517;-83
2020/12/11 03:26:24;;;;;;;9.48;7.80;;;-6.20;72.20;;;;;;5098433;29;20048;-82
2020/12/11 03:28:56;;;;;;;9.15;8.25;;;-6.10;72.10;;;;;;5098181;29;20039;-82
2020/12/11 03:31:27;;;;;;;10.55;8.30;;;-6.10;71.90;;;;;;5098582;29;20047;-82
2020/12/11 03:33:59;;;;;;;10.68;8.18;;;-6.10;71.60;;;;;;5095513;29;20040;-83
2020/12/11 03:36:31;;;;;;;9.68;7.85;;;-6.20;72.60;;;;;;5099959;29;20147;-82
2020/12/11 03:39:03;;;;;;;9.63;8.18;;;-6.10;72.80;;;;;;5098073;29;20692;-82
2020/12/11 03:41:34;;;;;;;9.13;8.23;;;-6.20;73.40;;;;;;5098167;29;20593;-82
2020/12/11 03:44:06;;;;;;;7.15;6.45;;;-6.10;73.60;;;;;;5098292;29;20102;-81
2020/12/11 03:46:37;;;;;;;6.72;6.13;;;-6.00;75.20;;;;;;5098662;29;20052;-81
2020/12/11 03:49:09;;;;;;;10.93;7.50;;;-6.00;77.10;;;;;;5109277;28;20052;-81
2020/12/11 03:51:40;;;;;;;7.95;7.00;;;-6.00;74.40;;;;;;5096993;29;20522;-80
2020/12/11 03:54:12;;;;;;;9.57;8.25;;;-5.90;75.50;;;;;;5073952;29;20085;-83
2020/12/11 03:56:43;;;;;;;10.25;8.32;;;-5.90;73.80;;;;;;5094922;29;20059;-82
2020/12/11 03:59:15;;;;;;;9.90;8.00;;;-5.90;72.10;;;;;;5099800;29;20070;-82
2020/12/11 04:01:46;;;;;;;10.40;8.32;;;-6.20;71.80;;;;;;5090996;29;20044;-82
2020/12/11 04:04:18;;;;;;;10.65;7.95;;;-6.30;72.70;;;;;;5093433;29;20048;-82
2020/12/11 04:06:49;;;;;;;9.02;7.65;;;-6.30;72.40;;;;;;5100424;29;20052;-83
2020/12/11 04:09:21;;;;;;;9.02;7.72;;;-6.30;72.90;;;;;;5093609;29;20337;-82
2020/12/11 04:11:52;;;;;;;9.13;7.80;;;-6.30;73.00;;;;;;5100275;29;20047;-83
2020/12/11 04:14:24;;;;;;;9.10;7.35;;;-6.30;73.00;;;;;;5086943;29;20055;-84
2020/12/11 04:16:55;;;;;;;8.52;7.65;;;-6.30;73.50;;;;;;5096786;29;20068;-82
2020/12/11 04:19:27;;;;;;;8.73;7.50;;;-6.20;73.50;;;;;;5094608;29;20052;-81
2020/12/11 04:22:00;;;;;;;8.30;7.50;;;-6.20;73.50;;;;;;5094806;29;20106;-81
2020/12/11 04:24:32;;;;;;;9.60;7.72;;;-6.10;73.50;;;;;;5100348;29;20521;-82
2020/12/11 04:27:03;;;;;;;8.82;7.63;;;-6.10;73.60;;;;;;5106252;29;20454;-82
2020/12/11 04:29:35;;;;;;;9.13;7.72;;;-6.10;73.30;;;;;;5102457;29;20043;-81
2020/12/11 04:32:06;;;;;;;8.50;7.70;;;-6.10;73.10;;;;;;5094273;29;20454;-77
2020/12/11 04:34:38;;;;;;;8.18;7.32;;;-6.10;73.00;;;;;;5097893;29;20106;-80
2020/12/11 04:37:09;;;;;;;9.95;7.80;;;-6.10;72.20;;;;;;5097123;29;20110;-79
2020/12/11 04:39:40;;;;;;;8.30;7.50;;;-6.10;72.60;;;;;;5097358;29;20553;-79
2020/12/11 04:42:12;;;;;;;9.23;7.43;;;-6.10;72.30;;;;;;5098333;29;20056;-80
2020/12/11 04:44:44;;;;;;;10.68;7.95;;;-6.10;72.20;;;;;;5083123;29;20044;-80
2020/12/11 04:47:18;;;;;;;8.25;7.10;;;-6.00;71.60;;;;;;5093853;29;20069;-79
2020/12/11 04:49:50;;;;;;;7.78;6.97;;;-6.10;71.80;;;;;;5098924;29;20040;-78
2020/12/11 04:52:27;;;;;;;7.38;6.57;;;-6.00;72.10;;;;;;5096202;29;20100;-79
2020/12/11 04:54:59;;;;;;;8.75;7.45;;;-6.00;72.20;;;;;;5097750;29;20641;-79
2020/12/11 04:57:32;;;;;;;11.57;7.55;;;-6.00;72.30;;;;;;5099744;29;20058;-79
2020/12/11 05:00:03;;;;;;;8.00;7.10;;;-6.00;71.90;;;;;;5098970;29;20106;-81
2020/12/11 05:02:38;;;;;;;8.07;6.95;;;-6.30;72.90;;;;;;5114151;28;20459;-82
2020/12/11 05:05:10;;;;;;;8.30;7.18;;;-6.40;73.60;;;;;;5095400;29;20122;-81
2020/12/11 05:07:43;;;;;;;9.63;7.32;;;-6.40;73.10;;;;;;5084345;29;20047;-81
2020/12/11 05:10:14;;;;;;;9.40;7.30;;;-6.40;74.30;;;;;;5099548;29;20043;-82
2020/12/11 05:12:48;;;;;;;8.38;7.50;;;-6.40;77.80;;;;;;5097651;29;20087;-82
2020/12/11 05:15:22;;;;;;;7.47;6.32;;;-6.30;78.70;;;;;;5098791;29;20048;-82
2020/12/11 05:17:53;;;;;;;8.07;7.28;;;-6.20;78.50;;;;;;5085484;29;20047;-81
2020/12/11 05:20:26;;;;;;;7.38;6.68;;;-6.10;77.90;;;;;;5089687;29;20052;-82
2020/12/11 05:23:07;;;;;;;7.75;6.20;;;-6.10;76.10;;;;;;5100279;29;20046;-82
2020/12/11 05:25:39;;;;;;;8.27;7.07;;;-6.00;78.70;;;;;;5096968;29;20051;-83
2020/12/11 05:28:11;;;;;;;8.77;7.60;;;-6.00;75.30;;;;;;5091023;29;20047;-82
2020/12/11 05:30:42;;;;;;;8.23;7.20;;;-6.00;73.60;;;;;;5114410;28;20055;-81
2020/12/11 05:33:18;;;;;;;7.95;6.82;;;-6.00;73.90;;;;;;5103336;29;20040;-81
2020/12/11 05:35:49;;;;;;;7.45;6.72;;;-6.00;74.10;;;;;;5101406;29;20070;-81
2020/12/11 05:38:20;;;;;;;6.80;6.10;;;-6.00;73.60;;;;;;5096400;29;20418;-80
2020/12/11 05:40:54;;;;;;;6.30;5.70;;;-5.90;73.80;;;;;;5099162;29;20048;-81
2020/12/11 05:43:26;;;;;;;6.43;5.82;;;-5.90;75.70;;;;;;5100515;29;20052;-81
2020/12/11 05:45:59;;;;;;;6.93;5.82;;;-5.90;77.70;;;;;;5091954;29;20396;-81
2020/12/11 05:48:39;;;;;;;8.35;7.15;;;-5.80;79.70;;;;;;5097461;29;20047;-82
2020/12/11 05:51:16;;;;;;;7.72;6.93;;;-5.70;76.20;;;;;;5095325;29;20051;-81
2020/12/11 05:53:48;;;;;;;8.27;6.93;;;-5.70;74.00;;;;;;5096464;29;20055;-81
2020/12/11 05:56:21;;;;;;;8.60;7.18;;;-5.80;73.80;;;;;;5096992;29;20055;-81
2020/12/11 05:58:53;;;;;;;10.38;7.50;;;-5.90;72.70;;;;;;5097548;29;20040;-83
2020/12/11 06:01:25;;;;;;;7.82;6.80;;;-5.90;73.80;;;;;;5082415;29;20089;-82
2020/12/11 06:03:57;;;;;;;7.13;6.43;;;-5.90;73.40;;;;;;5099716;29;20068;-82
2020/12/11 06:06:34;;;;;;;8.05;7.25;;;-6.00;74.10;;;;;;5113672;28;20048;-79
2020/12/11 06:09:08;;;;;;;7.32;6.63;;;-5.90;74.30;;;;;;5100208;29;20043;-81
2020/12/11 06:11:47;;;;;;;13.95;9.15;;;-5.90;74.20;;;;;;5093868;29;20052;-80
2020/12/11 06:14:28;;;;;;;11.75;8.65;;;-5.90;73.40;;;;;;5093283;29;20536;-81
2020/12/11 06:17:00;;;;;;;8.52;7.28;;;-5.90;73.50;;;;;;5091017;29;20060;-78
2020/12/11 06:19:38;;;;;;;6.32;5.72;;;-5.90;74.40;;;;;;5081444;29;20051;-78
2020/12/11 06:22:11;;;;;;;9.23;6.03;;;-5.80;76.50;;;;;;5093971;29;20090;-76
2020/12/11 06:24:42;;;;;;;13.15;10.00;;;-5.80;77.90;;;;;;5096452;29;20114;-77
2020/12/11 06:27:14;;;;;;;11.60;8.90;;;-5.80;74.90;;;;;;5092481;29;20048;-79
2020/12/11 06:29:45;;;;;;;9.60;7.80;;;-5.90;73.00;;;;;;5087949;29;20048;-77
2020/12/11 06:32:31;;;;;;;10.32;8.40;;;-6.00;74.40;;;;;;5091454;29;20039;-80
2020/12/11 06:35:13;;;;;;;8.05;7.18;;;-6.00;74.00;;;;;;5089133;29;20126;-78
2020/12/11 06:37:44;;;;;;;8.23;6.55;;;-6.00;73.90;;;;;;5088316;29;20052;-77
2020/12/11 06:40:16;;;;;;;10.52;6.90;;;-5.90;74.70;;;;;;5088213;29;20032;-77
2020/12/11 06:42:47;;;;;;;8.25;6.88;;;-5.90;73.90;;;;;;5090331;29;20071;-77
2020/12/11 06:45:25;;;;;;;8.50;7.20;;;-5.80;73.60;;;;;;5088569;29;20047;-77
2020/12/11 06:47:59;;;;;;;8.88;7.43;;;-5.80;73.80;;;;;;5080788;29;20075;-77
2020/12/11 06:50:32;;;;;;;8.05;7.25;;;-5.80;74.60;;;;;;5087492;29;20044;-77
2020/12/11 06:53:03;;;;;;;7.45;6.75;;;-5.80;75.10;;;;;;5087398;29;20043;-79
2020/12/11 06:55:50;;;;;;;7.93;7.10;;;-5.80;79.50;;;;;;5091548;29;20114;-78
2020/12/11 06:58:22;;;;;;;7.70;7.00;;;-5.60;81.00;;;;;;5088203;29;20044;-77
2020/12/11 07:00:54;;;;;;;11.60;8.52;;;-5.50;82.00;;;;;;5084887;29;20044;-76
2020/12/11 07:03:30;;;;;;;10.38;9.25;;;-5.40;80.40;;;;;;5088914;29;20573;-76
2020/12/11 07:06:03;;;;;;;11.82;10.43;;;-5.40;77.10;;;;;;5085135;29;20043;-76
2020/12/11 07:08:35;;;;;;;11.30;9.07;;;-5.40;74.90;;;;;;5089755;29;20811;-79
2020/12/11 07:11:09;;;;;;;9.43;8.52;;;-5.30;75.00;;;;;;5078484;29;20782;-76
2020/12/11 07:13:47;;;;;;;10.68;8.43;;;-5.30;73.90;;;;;;5095306;29;20051;-77
2020/12/11 07:16:19;;;;;;;8.80;7.90;;;-5.50;73.70;;;;;;5095963;29;20111;-79
2020/12/11 07:18:51;;;;;;;9.98;8.38;;;-5.60;73.30;;;;;;5096752;29;20150;-78
2020/12/11 07:21:29;;;;;;;11.05;8.40;;;-5.80;74.00;;;;;;5093492;29;20122;-79
2020/12/11 07:24:01;;;;;;;11.00;7.75;;;-5.80;74.00;;;;;;5092963;29;20058;-79
2020/12/11 07:26:33;;;;;;;16.63;13.15;;;-5.80;73.60;;;;;;5092726;29;20047;-80
2020/12/11 07:29:09;;;;;;;16.33;13.13;;;-5.70;74.00;;;;;;5095469;29;20450;-78
2020/12/11 07:31:42;;;;;;;11.35;9.55;;;-5.60;74.00;;;;;;5092540;29;20040;-78
2020/12/11 07:34:15;;;;;;;16.17;13.00;;;-5.50;74.60;;;;;;5098445;29;20115;-77
2020/12/11 07:36:55;;;;;;;17.92;13.65;;;-5.50;74.40;;;;;;5093202;29;20044;-79
2020/12/11 07:39:30;;;;;;;12.02;9.82;;;-5.40;74.30;;;;;;5095934;29;20119;-77
2020/12/11 07:42:04;;;;;;;10.80;8.73;;;-5.30;74.10;;;;;;5093893;29;20114;-78
2020/12/11 07:44:39;;;;;;;7.85;7.05;;;-5.20;73.90;;;;;;5097375;29;20120;-77
2020/12/11 07:47:14;;;;;;;8.20;6.85;;;-5.20;74.80;;;;;;5095574;29;20036;-78
2020/12/11 07:49:51;;;;;;;10.63;9.52;;;-5.20;77.00;;;;;;5092842;29;20083;-79
2020/12/11 07:52:29;;;;;;;14.43;10.90;;;-5.10;75.80;;;;;;5092648;29;20060;-77
2020/12/11 07:55:11;;;;;;;14.75;13.05;;;-5.00;75.50;;;;;;5088629;29;20070;-77
2020/12/11 07:57:49;;;;;;;21.42;15.60;;;-4.90;75.50;;;;;;5096092;29;20099;-77
2020/12/11 08:00:21;;;;;;;20.00;14.85;;;-4.90;75.60;;;;;;5094687;29;20054;-80
2020/12/11 08:02:57;;;;;;;13.00;9.40;;;-4.80;75.00;;;;;;5095483;29;20561;-77
2020/12/11 08:05:29;;;;;;;10.90;8.60;;;-4.80;74.20;;;;;;5093358;29;20104;-78
2020/12/11 08:08:00;;;;;;;14.23;10.10;;;-4.80;73.30;;;;;;5077155;29;20281;-77
2020/12/11 08:10:40;;;;;;;10.23;8.52;;;-4.80;72.80;;;;;;5096869;29;20052;-79
2020/12/11 08:13:13;;;;;;;;;;;-4.90;73.80;;;;;;5095454;29;20051;-78
2020/12/11 08:15:45;;;;;;;9.20;7.38;;;-4.90;74.60;;;;;;5095577;29;20134;-77
2020/12/11 08:18:20;;;;;;;9.18;7.97;;;-5.00;75.60;;;;;;5096391;29;20063;-79
2020/12/11 08:20:54;;;;;;;9.25;7.90;;;-4.90;76.00;;;;;;5096249;29;20063;-80
2020/12/11 08:23:42;;;;;;;8.15;6.80;;;-4.70;77.50;;;;;;5097751;29;20052;-79
2020/12/11 08:26:19;;;;;;;8.73;7.53;;;-4.60;79.80;;;;;;5097172;29;20047;-80
2020/12/11 08:29:06;;;;;;;11.38;9.02;;;-4.40;79.60;;;;;;5088573;29;20079;-78
2020/12/11 08:31:44;;;;;;;14.52;11.82;;;-4.30;77.50;;;;;;5096819;29;20107;-78
2020/12/11 08:34:16;;;;;;;16.75;11.40;;;-4.20;77.20;;;;;;5095587;29;20039;-79
2020/12/11 08:36:47;;;;;;;14.07;11.60;;;-4.20;76.60;;;;;;5063322;29;20522;-78
2020/12/11 08:39:25;;;;;;;11.60;9.00;;;-4.10;76.40;;;;;;5087439;29;20040;-78
2020/12/11 08:45:18;;;;;;;10.55;9.10;;;-3.90;75.90;;;;;;5075786;29;20085;-78
2020/12/11 08:50:43;;;;;;;11.43;8.60;;;-4.00;76.10;;;;;;5092186;29;20474;-78
2020/12/11 08:53:16;;;;;;;8.77;7.82;;;-3.90;76.30;;;;;;5095980;29;20113;-78
2020/12/11 08:55:48;;;;;;;9.75;8.40;;;-3.80;75.50;;;;;;5096421;29;20119;-78
2020/12/11 08:58:19;;;;;;;11.32;9.65;;;-3.70;76.30;;;;;;5091750;29;20048;-78
2020/12/11 09:00:51;;;;;;;14.68;11.20;;;-3.60;76.40;;;;;;5099108;29;20521;-78
2020/12/11 09:03:22;;;;;;;11.70;9.18;;;-3.50;76.00;;;;;;5089992;29;20531;-79
2020/12/11 09:05:53;;;;;;;11.52;9.98;;;-3.40;76.10;;;;;;5083407;29;20044;-78
2020/12/11 09:08:25;;;;;;;9.93;8.77;;;-3.30;76.00;;;;;;5081693;29;20039;-78
2020/12/11 09:10:57;;;;;;;11.05;8.15;;;-3.20;75.60;;;;;;5074085;29;20044;-78
2020/12/11 09:13:28;;;;;;;9.75;8.07;;;-3.10;75.60;;;;;;5093657;29;20102;-78
2020/12/11 09:16:00;;;;;;;8.70;7.85;;;-3.10;76.00;;;;;;5096808;29;20130;-78
2020/12/11 09:18:31;;;;;;;9.63;8.45;;;-3.00;76.60;;;;;;5093924;29;20067;-78
2020/12/11 09:21:02;;;;;;;12.43;9.85;;;-2.90;77.90;;;;;;5093783;29;20048;-79
2020/12/11 09:23:34;;;;;;;15.82;12.68;;;-2.80;77.50;;;;;;5094684;29;20573;-78
2020/12/11 09:26:05;;;;;;;15.82;11.85;;;-2.60;76.20;;;;;;5097417;29;20090;-79
2020/12/11 09:28:40;;;;;;;11.95;10.10;;;-2.40;74.50;;;;;;5097042;29;20075;-78
2020/12/11 09:31:11;;;;;;;12.40;10.07;;;-2.40;73.00;;;;;;5098324;28;20047;-78
2020/12/11 09:33:44;;;;;;;11.80;9.80;;;-2.40;73.40;;;;;;5083172;29;20039;-80
2020/12/11 09:36:15;;;;;;;14.50;10.85;;;-2.40;73.40;;;;;;5097382;29;20052;-80
2020/12/11 09:38:47;;;;;;;12.10;10.80;;;-2.30;74.00;;;;;;5096648;29;20040;-78
2020/12/11 09:41:26;;;;;;;13.77;11.60;;;-2.20;74.30;;;;;;5091649;29;20058;-78
2020/12/11 09:46:44;;;;;;;13.77;11.35;;;-1.90;73.90;;;;;;5097540;29;20496;-80
2020/12/11 09:49:23;;;;;;;13.88;11.45;;;-1.80;73.60;;;;;;5084650;29;20036;-80
2020/12/11 09:52:15;;;;;;;15.45;11.93;;;-1.70;74.10;;;;;;5096080;29;20126;-81
2020/12/11 09:54:47;;;;;;;16.40;12.80;;;-1.60;74.00;;;;;;5085594;29;20055;-80
2020/12/11 09:57:18;;;;;;;18.25;11.93;;;-1.40;73.70;;;;;;5098345;29;20047;-79
2020/12/11 09:59:53;;;;;;;13.20;11.80;;;-1.30;73.60;;;;;;5090216;29;20126;-80
2020/12/11 10:05:10;;;;;;;11.75;9.98;;;-1.10;72.80;;;;;;5079633;29;20502;-79
2020/12/11 10:07:42;;;;;;;11.23;10.07;;;-1.00;72.70;;;;;;5082869;29;20052;-78
2020/12/11 10:10:13;;;;;;;11.38;9.60;;;-0.90;71.80;;;;;;5111867;28;20514;-78
2020/12/11 10:12:45;;;;;;;11.93;10.05;;;-0.80;72.00;;;;;;5099265;29;20457;-78
2020/12/11 10:15:20;;;;;;;13.82;11.68;;;-0.90;71.70;;;;;;5096655;29;20063;-80
2020/12/11 10:17:53;;;;;;;13.50;11.60;;;-0.80;72.30;;;;;;5099017;29;20043;-78
2020/12/11 10:20:25;;;;;;;16.90;13.10;;;-0.60;72.70;;;;;;5096925;29;20044;-81
2020/12/11 10:22:57;;;;;;;16.08;12.65;;;-0.40;72.90;;;;;;5097955;29;20083;-80
2020/12/11 10:25:28;;;;;;;14.27;12.23;;;-0.20;72.20;;;;;;5095246;29;20051;-79
2020/12/11 10:28:00;;;;;;;12.10;10.80;;;0.00;71.90;;;;;;5098964;29;20614;-79
2020/12/11 10:30:32;;;;;;;12.57;11.38;;;0.00;71.60;;;;;;5079621;29;20056;-80
2020/12/11 10:33:03;;;;;;;14.38;12.15;;;0.10;71.80;;;;;;5099601;29;20449;-79
2020/12/11 10:35:34;;;;;;;12.25;10.95;;;0.20;71.60;;;;;;5096230;29;20048;-80
2020/12/11 10:38:06;;;;;;;15.57;11.68;;;0.30;71.80;;;;;;5098286;29;20532;-79
2020/12/11 10:40:38;;;;;;;13.13;11.57;;;0.50;71.60;;;;;;5096717;29;20040;-79
2020/12/11 10:43:10;;;;;;;16.50;13.52;;;0.60;70.50;;;;;;5081761;29;20055;-78
2020/12/11 10:45:41;;;;;;;16.17;13.20;;;0.80;70.10;;;;;;5094417;29;20083;-79
2020/12/11 10:48:12;;;;;;;13.95;12.52;;;0.80;70.50;;;;;;5098036;29;20044;-81
2020/12/11 10:50:44;;;;;;;13.43;12.02;;;0.90;70.40;;;;;;5095654;29;20075;-81
2020/12/11 10:53:16;;;;;;;13.35;11.88;;;0.90;68.60;;;;;;5097779;29;20451;-78
2020/12/11 10:55:47;;;;;;;13.65;11.90;;;0.90;69.10;;;;;;5095155;29;20425;-80
2020/12/11 10:58:19;;;;;;;13.98;12.48;;;0.90;69.60;;;;;;5079681;29;20056;-79
2020/12/11 11:00:51;;;;;;;12.82;11.15;;;1.00;70.20;;;;;;5093260;29;20059;-80
2020/12/11 11:03:22;;;;;;;14.57;13.10;;;1.10;69.00;;;;;;5094832;29;20096;-78
2020/12/11 11:05:55;;;;;;;12.73;11.43;;;1.10;69.40;;;;;;5095323;29;20056;-79
2020/12/11 11:08:38;;;;;;;12.00;10.80;;;1.00;67.90;;;;;;5090560;29;20047;-77
2020/12/11 11:11:10;;;;;;;12.48;11.25;;;0.90;69.90;;;;;;5100649;29;20047;-80
2020/12/11 11:19:32;;;;;;;13.32;11.95;;;1.20;69.50;;;;;;5097481;29;20047;-80
2020/12/11 11:30:07;;;;;;;12.05;10.85;;;1.10;69.10;;;;;;5095668;29;20040;-80
2020/12/11 11:32:38;;;;;;;11.57;10.38;;;1.20;69.70;;;;;;5093804;29;20095;-80
2020/12/11 11:35:10;;;;;;;13.40;11.15;;;1.30;69.80;;;;;;5093934;29;20099;-81
2020/12/11 11:37:41;;;;;;;12.27;10.98;;;1.30;68.30;;;;;;5093322;29;20681;-80
2020/12/11 11:40:14;;;;;;;12.02;10.82;;;1.30;69.00;;;;;;5096263;29;20048;-80
2020/12/11 11:42:45;;;;;;;12.45;11.25;;;1.30;69.30;;;;;;5095570;29;20047;-82
2020/12/11 11:45:20;;;;;;;13.30;11.40;;;1.30;69.50;;;;;;5076492;29;20100;-81
2020/12/11 11:47:55;;;;;;;13.75;11.60;;;1.30;69.50;;;;;;5096261;29;20470;-80
2020/12/11 11:53:19;;;;;;;12.45;11.15;;;1.40;69.50;;;;;;5097598;29;20695;-82
2020/12/11 11:55:50;;;;;;;12.90;11.35;;;1.40;69.40;;;;;;5076551;29;20067;-80
2020/12/11 11:58:22;;;;;;;13.23;11.75;;;1.30;68.80;;;;;;5074869;29;20056;-77
2020/12/11 12:00:53;;;;;;;12.40;11.23;;;1.40;69.10;;;;;;5094817;29;20658;-77
2020/12/11 12:03:25;;;;;;;12.60;11.40;;;1.40;68.50;;;;;;5097301;29;20095;-79
2020/12/11 12:05:56;;;;;;;13.27;11.32;;;1.40;68.50;;;;;;5099232;29;20048;-77
2020/12/11 12:08:28;;;;;;;12.00;10.90;;;1.40;67.50;;;;;;5081414;29;20205;-77
2020/12/11 12:10:59;;;;;;;14.27;11.25;;;1.40;67.70;;;;;;5097816;29;20051;-77
2020/12/11 12:13:31;;;;;;;13.48;12.20;;;1.40;68.20;;;;;;5098978;29;20056;-79
2020/12/11 12:16:03;;;;;;;13.68;12.27;;;1.40;68.00;;;;;;5082256;29;20106;-77
2020/12/11 12:18:38;;;;;;;12.55;11.35;;;1.50;67.60;;;;;;5095427;29;20521;-79
2020/12/11 12:21:23;;;;;;;12.15;10.88;;;1.50;67.80;;;;;;5096198;29;20044;-80
2020/12/11 12:29:17;;;;;;;11.68;10.60;;;1.40;68.00;;;;;;5099657;29;20055;-77
2020/12/11 12:31:54;;;;;;;12.50;11.10;;;1.20;68.50;;;;;;5097735;29;20694;-75
2020/12/11 12:45:11;;;;;;;12.68;11.48;;;1.20;69.50;;;;;;5099843;29;20442;-79
2020/12/11 12:47:42;;;;;;;13.02;11.82;;;1.20;69.00;;;;;;5103304;29;20597;-76
2020/12/11 12:50:14;;;;;;;12.82;11.43;;;1.10;69.50;;;;;;5100496;29;20139;-77
2020/12/11 12:52:48;;;;;;;12.60;11.23;;;1.10;69.70;;;;;;5098045;29;20658;-78
2020/12/11 12:55:24;;;;;;;12.82;11.60;;;1.00;69.80;;;;;;5100221;29;20054;-77
2020/12/11 12:57:59;;;;;;;13.98;12.68;;;1.00;70.10;;;;;;5080890;29;20103;-76
2020/12/11 13:00:48;;;;;;;16.42;12.00;;;1.00;70.20;;;;;;5100321;29;20044;-75
2020/12/11 13:03:44;;;;;;;13.23;11.95;;;1.10;70.50;;;;;;5101314;29;20601;-77
2020/12/11 13:06:15;;;;;;;13.02;11.82;;;1.00;70.50;;;;;;5095936;29;20146;-76
2020/12/11 13:08:47;;;;;;;12.82;11.52;;;0.90;71.00;;;;;;5093938;29;20055;-77
2020/12/11 13:11:19;;;;;;;12.90;11.60;;;0.90;71.40;;;;;;5094749;29;20052;-76
2020/12/11 13:13:50;;;;;;;12.48;11.27;;;0.90;71.70;;;;;;5098686;29;20808;-78
2020/12/11 13:16:25;;;;;;;12.88;11.73;;;0.90;71.80;;;;;;5099871;29;20126;-80
2020/12/11 13:18:57;;;;;;;12.35;11.20;;;0.90;71.80;;;;;;5100113;29;20051;-79
2020/12/11 13:21:34;;;;;;;12.25;11.02;;;0.90;72.10;;;;;;5098957;29;20048;-76
2020/12/11 13:26:57;;;;;;;13.18;11.88;;;0.90;72.60;;;;;;5094036;29;20556;-76
2020/12/11 13:29:29;;;;;;;13.73;12.43;;;0.70;73.20;;;;;;5091592;29;20047;-77
2020/12/11 13:32:01;;;;;;;14.40;12.90;;;0.50;73.50;;;;;;5098951;29;20189;-76
2020/12/11 13:34:33;;;;;;;14.00;12.80;;;0.40;74.60;;;;;;5099635;29;20051;-77
2020/12/11 13:37:04;;;;;;;13.00;11.20;;;0.50;75.50;;;;;;5096590;29;20052;-77
2020/12/11 13:39:35;;;;;;;12.25;11.15;;;0.40;75.20;;;;;;5096669;29;20837;-79
2020/12/11 13:42:07;;;;;;;12.35;11.15;;;0.30;75.70;;;;;;5097617;29;20480;-77
2020/12/11 13:44:39;;;;;;;12.10;11.00;;;0.20;76.00;;;;;;5082442;29;20062;-77
2020/12/11 13:47:10;;;;;;;11.98;10.88;;;0.30;76.40;;;;;;5098155;29;20095;-77
2020/12/11 13:49:42;;;;;;;12.65;11.48;;;0.40;76.20;;;;;;5092363;29;20044;-77
2020/12/11 13:52:14;;;;;;;12.85;11.55;;;0.40;76.20;;;;;;5097766;29;20043;-78
2020/12/11 13:54:45;;;;;;;12.73;11.55;;;0.40;75.70;;;;;;5083654;29;20524;-79
2020/12/11 13:57:17;;;;;;;13.27;12.07;;;0.50;75.30;;;;;;5095099;29;20476;-77
2020/12/11 13:59:49;;;;;;;12.15;10.88;;;0.50;75.40;;;;;;5082738;29;20044;-77